Time;durP1;ratioP1;P1;durP2;ratioP2;P2;SDS_P1;SDS_P2;PMS_P1;PMS_P2;Temp;Humidity;BMP_temperature;BMP_pressure;BME280_temperature;BME280_humidity;BME280_pressure;Samples;Min_cycle;Max_cycle;Signal;HPM_P1;HPM_P2
2021/07/09 00:01:03;;;;;;;;;;;;;;;21.70;63.14;101941.91;5036708;28;2105;-58
2021/07/09 00:03:28;;;;;;;;;;;;;;;21.67;63.27;101932.22;5038059;28;988;-57
2021/07/09 00:05:53;;;;;;;;;;;;;;;21.68;62.91;101928.47;5038156;28;1898;-56
2021/07/09 00:08:18;;;;;;;;;;;;;;;21.67;63.14;101924.06;5038135;28;838;-56
2021/07/09 00:10:43;;;;;;;;;;;;;;;21.67;62.83;101926.78;5038211;28;1049;-57
2021/07/09 00:13:08;;;;;;;;;;;;;;;21.65;63.04;101923.38;5037744;28;1520;-57
2021/07/09 00:15:33;;;;;;;;;;;;;;;21.64;63.07;101918.06;5037818;28;779;-58
2021/07/09 00:17:58;;;;;;;;;;;;;;;21.63;63.39;101917.22;5037154;28;2104;-56
2021/07/09 00:20:23;;;;;;;;;;;;;;;21.61;63.07;101915.66;5037376;28;1064;-57
2021/07/09 00:22:48;;;;;;;;;;;;;;;21.62;62.55;101918.22;5037805;28;1551;-57
2021/07/09 00:25:14;;;;;;;;;;;;;;;21.59;63.02;101921.22;5037364;28;2005;-55
2021/07/09 00:27:39;;;;;;;;;;;;;;;21.58;63.12;101924.94;5037886;28;942;-57
2021/07/09 00:30:04;;;;;;;;;;;;;;;21.60;63.09;101927.50;5037456;28;1052;-54
2021/07/09 00:32:29;;;;;;;;;;;;;;;21.59;62.44;101923.94;5037167;28;1967;-57
2021/07/09 00:34:54;;;;;;;;;;;;;;;21.58;62.64;101933.06;5037336;28;874;-57
2021/07/09 00:37:19;;;;;;;;;;;;;;;21.57;62.80;101930.50;5037470;28;854;-56
2021/07/09 00:39:44;;;;;;;;;;;;;;;21.55;62.66;101929.78;5037471;28;990;-56
2021/07/09 00:42:09;;;;;;;;;;;;;;;21.54;63.33;101925.34;5037508;28;1746;-57
2021/07/09 00:44:35;;;;;;;;;;;;;;;21.52;63.35;101922.78;5037488;28;1898;-56
2021/07/09 00:47:00;;;;;;;;;;;;;;;21.53;62.59;101924.50;5037410;28;1009;-56
2021/07/09 00:49:25;;;;;;;;;;;;;;;21.53;62.83;101927.22;5036749;28;1903;-57
2021/07/09 00:51:50;;;;;;;;;;;;;;;21.52;62.55;101922.78;5037022;28;1864;-56
2021/07/09 00:54:15;;;;;;;;;;;;;;;21.52;62.43;101924.63;5037290;28;902;-56
2021/07/09 00:56:40;;;;;;;;;;;;;;;21.49;62.85;101925.81;5036742;28;922;-56
2021/07/09 00:59:05;;;;;;;;;;;;;;;21.50;62.29;101922.06;5036829;28;846;-56
2021/07/09 01:01:30;;;;;;;;;;;;;;;21.50;62.86;101923.94;5036799;28;1426;-56
2021/07/09 01:03:55;;;;;;;;;;;;;;;21.49;62.30;101923.09;5036904;28;1901;-55
2021/07/09 01:06:20;;;;;;;;;;;;;;;21.46;62.17;101934.22;5036572;28;1901;-56
2021/07/09 01:08:45;;;;;;;;;;;;;;;21.46;62.35;101926.94;5036898;28;1927;-56
2021/07/09 01:11:11;;;;;;;;;;;;;;;21.47;62.11;101931.38;5036630;28;1624;-55
2021/07/09 01:13:36;;;;;;;;;;;;;;;21.45;62.06;101932.53;5036801;28;1044;-55
2021/07/09 01:16:01;;;;;;;;;;;;;;;21.44;62.65;101939.78;5037049;28;957;-55
2021/07/09 01:18:26;;;;;;;;;;;;;;;21.45;62.75;101943.38;5036683;28;850;-56
2021/07/09 01:20:51;;;;;;;;;;;;;;;21.44;62.71;101936.22;5036798;28;1459;-57
2021/07/09 01:23:16;;;;;;;;;;;;;;;21.43;62.71;101927.22;5036337;28;1855;-56
2021/07/09 01:25:41;;;;;;;;;;;;;;;21.43;62.16;101929.09;5036451;28;1980;-57
2021/07/09 01:28:06;;;;;;;;;;;;;;;21.42;61.99;101938.22;5036619;28;1137;-54
2021/07/09 01:30:31;;;;;;;;;;;;;;;21.39;62.38;101933.06;5036598;28;1437;-57
2021/07/09 01:32:56;;;;;;;;;;;;;;;21.40;62.10;101938.38;5036169;28;914;-52
2021/07/09 01:35:21;;;;;;;;;;;;;;;21.41;62.19;101941.94;5035804;28;858;-53
2021/07/09 01:37:47;;;;;;;;;;;;;;;21.40;61.79;101935.66;5036195;28;2123;-54
2021/07/09 01:40:12;;;;;;;;;;;;;;;21.39;62.05;101943.94;5035706;28;1953;-53
2021/07/09 01:42:37;;;;;;;;;;;;;;;21.38;62.14;101940.34;5036491;28;1072;-55
2021/07/09 01:45:02;;;;;;;;;;;;;;;21.35;62.27;101945.19;5036184;28;1969;-54
2021/07/09 01:47:33;;;;;;;;;;;;;;;21.36;62.30;101941.50;5036262;28;1973;-50
2021/07/09 01:49:58;;;;;;;;;;;;;;;21.34;61.76;101938.06;5035220;28;1961;-54
2021/07/09 01:52:24;;;;;;;;;;;;;;;21.31;61.82;101941.94;5034316;28;934;-52
2021/07/09 01:54:49;;;;;;;;;;;;;;;21.30;62.28;101939.38;5034898;28;905;-56
2021/07/09 01:57:14;;;;;;;;;;;;;;;21.32;62.13;101937.34;5036028;28;1907;-54
2021/07/09 01:59:39;;;;;;;;;;;;;;;21.30;61.92;101940.22;5035621;28;2083;-54
2021/07/09 02:02:04;;;;;;;;;;;;;;;21.30;62.44;101933.94;5035926;28;1060;-55
2021/07/09 02:04:29;;;;;;;;;;;;;;;21.28;62.12;101931.38;5035468;28;1967;-54
2021/07/09 02:06:54;;;;;;;;;;;;;;;21.27;61.97;101934.22;5035852;28;1017;-52
2021/07/09 02:09:19;;;;;;;;;;;;;;;21.27;61.95;101931.53;5035618;28;1561;-55
2021/07/09 02:11:44;;;;;;;;;;;;;;;21.25;61.77;101934.38;5035706;28;853;-54
2021/07/09 02:14:09;;;;;;;;;;;;;;;21.24;61.93;101931.81;5035155;28;2138;-51
2021/07/09 02:16:34;;;;;;;;;;;;;;;21.26;61.85;101937.94;5035637;28;942;-56
2021/07/09 02:18:59;;;;;;;;;;;;;;;21.25;61.92;101947.06;5035670;28;895;-53
2021/07/09 02:21:24;;;;;;;;;;;;;;;21.24;61.65;101940.78;5035333;28;893;-54
2021/07/09 02:23:50;;;;;;;;;;;;;;;21.23;61.77;101949.91;5035079;28;1115;-53
2021/07/09 02:26:15;;;;;;;;;;;;;;;21.22;61.80;101947.34;5035230;28;1902;-56
2021/07/09 02:28:40;;;;;;;;;;;;;;;21.21;61.45;101935.66;5035072;28;2009;-58
2021/07/09 02:31:05;;;;;;;;;;;;;;;21.21;61.40;101935.66;5035472;28;811;-56
2021/07/09 02:33:30;;;;;;;;;;;;;;;21.20;61.99;101942.06;5034985;28;990;-57
2021/07/09 02:35:55;;;;;;;;;;;;;;;21.19;61.64;101928.63;5035469;28;1068;-56
2021/07/09 02:38:20;;;;;;;;;;;;;;;21.18;61.63;101941.31;5035329;28;1186;-56
2021/07/09 02:40:45;;;;;;;;;;;;;;;21.18;62.19;101930.47;5034795;28;843;-53
2021/07/09 02:43:10;;;;;;;;;;;;;;;21.17;61.62;101938.75;5035431;28;986;-55
2021/07/09 02:45:35;;;;;;;;;;;;;;;21.16;62.21;101929.75;5034600;28;2041;-53
2021/07/09 02:48:00;;;;;;;;;;;;;;;21.15;61.22;101923.47;5035323;28;1547;-53
2021/07/09 02:50:26;;;;;;;;;;;;;;;21.13;61.61;101925.50;5034934;28;928;-56
2021/07/09 02:52:51;;;;;;;;;;;;;;;21.14;61.46;101926.31;5034977;28;846;-56
2021/07/09 02:55:17;;;;;;;;;;;;;;;21.12;61.84;101931.91;5034887;28;1866;-55
2021/07/09 02:57:42;;;;;;;;;;;;;;;21.11;61.45;101923.91;5035076;28;901;-57
2021/07/09 03:00:07;;;;;;;;;;;;;;;21.10;62.16;101928.47;5034765;28;854;-56
2021/07/09 03:02:33;;;;;;;;;;;;;;;21.10;61.93;101917.66;5034450;28;1898;-55
2021/07/09 03:04:58;;;;;;;;;;;;;;;21.10;61.86;101928.47;5035073;28;1893;-54
2021/07/09 03:07:23;;;;;;;;;;;;;;;21.08;61.82;101926.91;5035185;28;1575;-54
2021/07/09 03:09:48;;;;;;;;;;;;;;;21.07;61.24;101914.34;5035156;28;1004;-54
2021/07/09 03:12:13;;;;;;;;;;;;;;;21.07;62.17;101922.50;5035037;28;2009;-53
2021/07/09 03:14:39;;;;;;;;;;;;;;;21.05;61.85;101917.19;5034672;28;812;-53
2021/07/09 03:17:05;;;;;;;;;;;;;;;21.05;61.80;101917.19;5034913;28;815;-51
2021/07/09 03:19:30;;;;;;;;;;;;;;;21.06;61.18;101916.22;5034387;28;2004;-55
2021/07/09 03:21:55;;;;;;;;;;;;;;;21.02;61.46;101920.19;5034793;28;1013;-52
2021/07/09 03:24:20;;;;;;;;;;;;;;;21.04;61.78;101914.63;5034835;28;1922;-56
2021/07/09 03:26:45;;;;;;;;;;;;;;;21.03;61.45;101921.03;5034990;28;1009;-54
2021/07/09 03:29:10;;;;;;;;;;;;;;;21.02;62.11;101920.19;5035098;28;826;-53
2021/07/09 03:31:35;;;;;;;;;;;;;;;21.01;62.20;101917.63;5034754;28;1056;-54
2021/07/09 03:34:00;;;;;;;;;;;;;;;21.00;61.68;101924.91;5035607;28;1991;-52
2021/07/09 03:36:25;;;;;;;;;;;;;;;21.00;61.41;101921.31;5038342;28;848;-55
2021/07/09 03:38:50;;;;;;;;;;;;;;;20.98;61.32;101916.03;5038051;28;823;-54
2021/07/09 03:41:15;;;;;;;;;;;;;;;20.98;61.95;101923.31;5038651;28;1060;-52
2021/07/09 03:43:40;;;;;;;;;;;;;;;20.97;61.97;101916.19;5038184;28;1917;-52
2021/07/09 03:46:06;;;;;;;;;;;;;;;20.96;61.93;101920.75;5038312;28;1895;-53
2021/07/09 03:48:31;;;;;;;;;;;;;;;20.98;61.01;101926.88;5037720;28;2007;-52
2021/07/09 03:50:56;;;;;;;;;;;;;;;20.97;61.72;101921.59;5038213;28;920;-51
2021/07/09 03:53:21;;;;;;;;;;;;;;;20.96;60.93;101926.16;5038571;28;1699;-54
2021/07/09 03:55:46;;;;;;;;;;;;;;;20.95;61.91;101929.91;5037507;28;2704;-55
2021/07/09 03:58:11;;;;;;;;;;;;;;;20.99;61.45;101922.31;5038218;28;873;-56
2021/07/09 04:00:36;;;;;;;;;;;;;;;21.08;61.21;101918.78;5038294;28;1009;-54
2021/07/09 04:03:01;;;;;;;;;;;;;;;21.10;61.36;101919.50;5038225;28;1552;-55
2021/07/09 04:05:26;;;;;;;;;;;;;;;21.14;60.82;101913.63;5037555;28;1910;-52
2021/07/09 04:07:51;;;;;;;;;;;;;;;21.17;60.88;101917.91;5037580;28;1052;-54
2021/07/09 04:10:17;;;;;;;;;;;;;;;21.21;60.91;101918.53;5037453;28;902;-53
2021/07/09 04:12:42;;;;;;;;;;;;;;;21.23;60.85;101919.25;5037305;28;803;-54
2021/07/09 04:15:07;;;;;;;;;;;;;;;21.22;60.04;101910.25;5037313;28;1935;-51
2021/07/09 04:17:32;;;;;;;;;;;;;;;21.26;60.61;101913.53;5037432;28;862;-50
2021/07/09 04:19:57;;;;;;;;;;;;;;;21.27;59.63;101920.69;5037295;28;893;-55
2021/07/09 04:22:22;;;;;;;;;;;;;;;21.29;59.15;101922.25;5037167;28;1858;-53
2021/07/09 04:24:48;;;;;;;;;;;;;;;21.36;58.68;101919.81;5037588;28;1971;-52
2021/07/09 04:27:13;;;;;;;;;;;;;;;21.41;58.71;101925.66;5036908;28;894;-54
2021/07/09 04:29:38;;;;;;;;;;;;;;;21.45;57.68;101918.97;5037011;28;1292;-55
2021/07/09 04:32:03;;;;;;;;;;;;;;;21.46;56.74;101916.09;5037053;28;1025;-56
2021/07/09 04:34:28;;;;;;;;;;;;;;;21.49;56.82;101917.66;5036682;28;1876;-56
2021/07/09 04:36:53;;;;;;;;;;;;;;;21.52;56.24;101917.34;5037453;28;1033;-56
2021/07/09 04:39:18;;;;;;;;;;;;;;;21.55;56.07;101924.34;5036738;28;945;-56
2021/07/09 04:41:43;;;;;;;;;;;;;;;21.54;56.38;101923.50;5036519;28;791;-54
2021/07/09 04:44:08;;;;;;;;;;;;;;;21.53;56.09;101926.34;5036700;28;1890;-56
2021/07/09 04:46:33;;;;;;;;;;;;;;;21.56;55.89;101929.63;5036282;28;1009;-56
2021/07/09 04:48:58;;;;;;;;;;;;;;;21.57;56.13;101919.66;5036582;28;1977;-55
2021/07/09 04:51:23;;;;;;;;;;;;;;;21.58;56.36;101922.22;5036801;28;787;-55
2021/07/09 04:53:48;;;;;;;;;;;;;;;21.58;56.05;101924.94;5036612;28;1801;-52
2021/07/09 04:56:13;;;;;;;;;;;;;;;21.58;55.84;101929.50;5036456;28;913;-50
2021/07/09 04:58:38;;;;;;;;;;;;;;;21.57;56.63;101925.94;5036495;28;814;-55
2021/07/09 05:01:04;;;;;;;;;;;;;;;21.63;56.30;101930.78;5036546;28;1873;-50
2021/07/09 05:03:29;;;;;;;;;;;;;;;21.66;56.16;101932.34;5036782;28;969;-51
2021/07/09 05:05:54;;;;;;;;;;;;;;;21.69;56.72;101930.19;5039782;28;1965;-50
2021/07/09 05:08:19;;;;;;;;;;;;;;;21.72;56.62;101935.31;5044579;28;1695;-50
2021/07/09 05:10:44;;;;;;;;;;;;;;;21.78;56.40;101934.75;5036336;28;910;-56
2021/07/09 05:13:09;;;;;;;;;;;;;;;21.90;56.47;101931.84;5036173;28;1990;-55
2021/07/09 05:15:34;;;;;;;;;;;;;;;22.03;56.61;101932.44;5036830;28;1717;-55
2021/07/09 05:17:59;;;;;;;;;;;;;;;22.08;56.98;101935.56;5038916;28;1654;-51
2021/07/09 05:20:24;;;;;;;;;;;;;;;22.15;58.25;101932.13;5056609;28;834;-53
2021/07/09 05:22:49;;;;;;;;;;;;;;;22.23;57.66;101939.50;5039722;28;2009;-52
2021/07/09 05:25:14;;;;;;;;;;;;;;;22.25;57.79;101934.78;5041617;28;2016;-54
2021/07/09 05:27:39;;;;;;;;;;;;;;;22.28;57.72;101931.78;5046847;28;1612;-54
2021/07/09 05:30:05;;;;;;;;;;;;;;;22.35;58.58;101938.31;5044860;28;1824;-56
2021/07/09 05:32:30;;;;;;;;;;;;;;;22.39;58.39;101938.88;5044626;28;1650;-54
2021/07/09 05:34:55;;;;;;;;;;;;;;;22.38;58.36;101942.59;5045397;28;1731;-53
2021/07/09 05:37:20;;;;;;;;;;;;;;;22.39;58.22;101934.28;5045503;28;1744;-53
2021/07/09 05:39:45;;;;;;;;;;;;;;;22.28;59.38;101939.91;5048788;28;1616;-57
2021/07/09 05:42:10;;;;;;;;;;;;;;;22.31;58.37;101928.75;5041101;28;1576;-57
2021/07/09 05:44:35;;;;;;;;;;;;;;;22.32;58.60;101930.47;5037020;28;1886;-58
2021/07/09 05:47:00;;;;;;;;;;;;;;;22.36;59.01;101933.75;5039830;28;1724;-57
2021/07/09 05:49:25;;;;;;;;;;;;;;;22.27;58.70;101924.63;5039353;28;1712;-56
2021/07/09 05:51:50;;;;;;;;;;;;;;;22.33;58.57;101923.19;5035714;28;1732;-57
2021/07/09 05:54:15;;;;;;;;;;;;;;;22.36;58.68;101922.88;5036087;28;1980;-56
2021/07/09 05:56:41;;;;;;;;;;;;;;;22.37;59.01;101924.59;5041642;28;1774;-56
2021/07/09 05:59:06;;;;;;;;;;;;;;;22.41;58.63;101920.56;5035199;28;1790;-56
2021/07/09 06:01:31;;;;;;;;;;;;;;;22.41;58.90;101921.41;5036008;28;1068;-56
2021/07/09 06:03:56;;;;;;;;;;;;;;;22.41;59.17;101918.69;5035739;28;2079;-57
2021/07/09 06:06:21;;;;;;;;;;;;;;;22.46;58.83;101913.66;5036009;28;1894;-56
2021/07/09 06:08:46;;;;;;;;;;;;;;;22.46;59.31;101919.09;5035727;28;1782;-57
2021/07/09 06:11:11;;;;;;;;;;;;;;;22.41;59.51;101924.13;5050072;28;1810;-57
2021/07/09 06:13:36;;;;;;;;;;;;;;;22.35;59.17;101932.91;5055764;28;1236;-56
2021/07/09 06:16:01;;;;;;;;;;;;;;;22.28;59.28;101925.47;5039175;28;2077;-56
2021/07/09 06:18:26;;;;;;;;;;;;;;;22.25;59.62;101926.63;5035883;28;1600;-56
2021/07/09 06:20:51;;;;;;;;;;;;;;;22.31;59.16;101922.47;5035308;28;843;-56
2021/07/09 06:23:16;;;;;;;;;;;;;;;22.38;59.63;101923.59;5035229;28;1884;-55
2021/07/09 06:25:43;;;;;;;;;;;;;;;22.44;59.48;101922.97;5035382;28;1979;-56
2021/07/09 06:28:08;;;;;;;;;;;;;;;22.42;59.49;101928.56;5034983;28;1721;-56
2021/07/09 06:30:33;;;;;;;;;;;;;;;22.39;59.43;101926.13;5035464;28;830;-56
2021/07/09 06:32:58;;;;;;;;;;;;;;;22.35;59.67;101932.03;5035518;28;985;-57
2021/07/09 06:35:28;;;;;;;;;;;;;;;22.37;59.59;101930.03;5035155;28;930;-56
2021/07/09 06:37:53;;;;;;;;;;;;;;;22.40;59.66;101932.41;5035429;28;921;-56
2021/07/09 06:40:18;;;;;;;;;;;;;;;22.26;59.00;101933.78;5037130;28;1794;-55
2021/07/09 06:42:44;;;;;;;;;;;;;;;22.21;59.20;101936.09;5037899;28;1609;-57
2021/07/09 06:45:09;;;;;;;;;;;;;;;22.21;59.24;101935.25;5039341;28;1902;-57
2021/07/09 06:47:34;;;;;;;;;;;;;;;22.29;59.40;101929.91;5045579;28;1606;-55
2021/07/09 06:49:59;;;;;;;;;;;;;;;22.27;59.25;101935.50;5048567;28;1789;-57
2021/07/09 06:52:24;;;;;;;;;;;;;;;22.24;58.89;101929.50;5061372;28;1492;-57
2021/07/09 06:54:49;;;;;;;;;;;;;;;22.05;59.70;101927.69;5043521;28;2008;-57
2021/07/09 06:57:14;;;;;;;;;;;;;;;21.69;59.31;101929.31;5044205;28;1634;-57
2021/07/09 06:59:42;;;;;;;;;;;;;;;21.64;59.39;101934.34;5040662;28;1597;-54
2021/07/09 07:02:07;;;;;;;;;;;;;;;21.28;59.57;101941.38;5035294;28;838;-56
2021/07/09 07:04:32;;;;;;;;;;;;;;;21.33;59.67;101939.06;5035009;28;1894;-57
2021/07/09 07:06:57;;;;;;;;;;;;;;;21.33;59.53;101947.19;5035105;28;906;-57
2021/07/09 07:09:23;;;;;;;;;;;;;;;21.24;60.30;101942.66;5036526;28;1176;-57
2021/07/09 07:11:48;;;;;;;;;;;;;;;21.41;59.65;101948.22;5039005;28;949;-57
2021/07/09 07:14:13;;;;;;;;;;;;;;;21.43;59.77;101945.38;5038451;28;1953;-52
2021/07/09 07:16:38;;;;;;;;;;;;;;;21.43;59.75;101945.38;5039025;28;1755;-57
2021/07/09 07:19:03;;;;;;;;;;;;;;;21.29;59.47;101941.22;5038774;28;1658;-56
2021/07/09 07:21:28;;;;;;;;;;;;;;;21.35;59.68;101947.91;5063606;28;1934;-55
2021/07/09 07:23:53;;;;;;;;;;;;;;;21.43;60.16;101957.06;5048546;28;1751;-57
2021/07/09 07:26:18;;;;;;;;;;;;;;;21.39;58.92;101960.19;5058677;28;2141;-57
2021/07/09 07:28:43;;;;;;;;;;;;;;;21.39;59.08;101957.47;5051155;28;1655;-57
2021/07/09 07:31:08;;;;;;;;;;;;;;;21.46;58.51;101961.34;5046580;28;1632;-56
2021/07/09 07:33:33;;;;;;;;;;;;;;;21.31;59.44;101966.34;5052385;28;1430;-57
2021/07/09 07:35:59;;;;;;;;;;;;;;;21.48;60.46;101957.50;5048939;28;1614;-57
2021/07/09 07:38:24;;;;;;;;;;;;;;;21.58;59.63;101956.63;5050249;28;1591;-57
2021/07/09 07:40:49;;;;;;;;;;;;;;;21.54;58.76;101957.91;5049973;28;1509;-57
2021/07/09 07:43:14;;;;;;;;;;;;;;;21.44;59.44;101957.94;5058231;28;894;-57
2021/07/09 07:45:40;;;;;;;;;;;;;;;21.44;59.44;101952.50;5047822;28;1963;-57
2021/07/09 07:48:05;;;;;;;;;;;;;;;21.29;59.62;101951.22;5036443;28;871;-56
2021/07/09 07:50:30;;;;;;;;;;;;;;;21.24;59.23;101950.78;5038069;28;779;-56
2021/07/09 07:52:55;;;;;;;;;;;;;;;21.21;59.18;101956.47;5037895;28;860;-56
2021/07/09 07:55:20;;;;;;;;;;;;;;;21.25;60.24;101945.22;5038107;28;920;-56
2021/07/09 07:57:45;;;;;;;;;;;;;;;21.33;59.06;101947.19;5038619;28;885;-57
2021/07/09 08:00:10;;;;;;;;;;;;;;;21.44;59.63;101949.78;5038268;28;787;-55
2021/07/09 08:02:35;;;;;;;;;;;;;;;21.49;59.80;101950.22;5037885;28;1922;-56
2021/07/09 08:05:00;;;;;;;;;;;;;;;21.48;59.58;101948.50;5044464;28;2242;-58
2021/07/09 08:07:25;;;;;;;;;;;;;;;21.34;58.84;101948.91;5044690;28;2667;-58
2021/07/09 08:09:51;;;;;;;;;;;;;;;21.34;59.35;101944.34;5047239;28;1667;-56
2021/07/09 08:12:16;;;;;;;;;;;;;;;21.22;59.45;101939.22;5047050;28;1557;-58
2021/07/09 08:14:41;;;;;;;;;;;;;;;21.21;59.47;101945.63;5031501;28;1822;-56
2021/07/09 08:17:06;;;;;;;;;;;;;;;21.25;60.03;101942.50;5040323;28;1413;-57
2021/07/09 08:19:31;;;;;;;;;;;;;;;21.38;59.25;101947.63;5040198;28;2226;-56
2021/07/09 08:21:56;;;;;;;;;;;;;;;21.36;59.08;101944.22;5032839;28;1617;-57
2021/07/09 08:24:21;;;;;;;;;;;;;;;21.28;59.15;101938.66;5045850;28;1902;-57
2021/07/09 08:26:46;;;;;;;;;;;;;;;21.27;58.80;101939.66;5046348;28;1642;-57
2021/07/09 08:29:11;;;;;;;;;;;;;;;21.29;58.68;101929.53;5039207;28;1591;-57
2021/07/09 08:31:36;;;;;;;;;;;;;;;21.26;58.31;101937.94;5037724;28;997;-58
2021/07/09 08:34:01;;;;;;;;;;;;;;;21.24;59.16;101934.50;5038033;28;890;-57
2021/07/09 08:36:27;;;;;;;;;;;;;;;21.25;59.04;101937.09;5037245;28;2065;-56
2021/07/09 08:38:52;;;;;;;;;;;;;;;21.13;58.74;101936.34;5036828;28;2016;-58
2021/07/09 08:41:17;;;;;;;;;;;;;;;21.15;59.43;101945.16;5036115;28;1029;-57
2021/07/09 08:43:42;;;;;;;;;;;;;;;21.17;58.63;101938.75;5042316;28;1586;-57
2021/07/09 08:46:07;;;;;;;;;;;;;;;21.31;59.44;101941.09;5037676;28;1913;-56
2021/07/09 08:48:32;;;;;;;;;;;;;;;21.19;58.40;101942.16;5037012;28;1107;-56
2021/07/09 08:50:57;;;;;;;;;;;;;;;21.21;58.21;101940.22;5037321;28;1956;-57
2021/07/09 08:53:22;;;;;;;;;;;;;;;21.22;58.54;101937.38;5037538;28;799;-57
2021/07/09 08:55:47;;;;;;;;;;;;;;;21.33;58.69;101933.63;5037253;28;902;-57
2021/07/09 08:58:12;;;;;;;;;;;;;;;21.29;58.00;101940.38;5037289;28;1009;-58
2021/07/09 09:00:37;;;;;;;;;;;;;;;21.25;58.04;101941.66;5036977;28;2003;-58
2021/07/09 09:03:02;;;;;;;;;;;;;;;21.21;57.73;101937.50;5037206;28;996;-56
2021/07/09 09:05:27;;;;;;;;;;;;;;;21.06;57.92;101942.47;5037113;28;1957;-58
2021/07/09 09:07:53;;;;;;;;;;;;;;;21.09;57.36;101943.03;5036792;28;1976;-57
2021/07/09 09:10:18;;;;;;;;;;;;;;;21.22;57.94;101947.34;5037214;28;1815;-58
2021/07/09 09:12:46;;;;;;;;;;;;;;;21.34;58.09;101941.63;5036823;28;928;-58
2021/07/09 09:15:11;;;;;;;;;;;;;;;21.32;57.53;101937.34;5036817;28;808;-58
2021/07/09 09:17:37;;;;;;;;;;;;;;;21.23;58.26;101936.38;5036874;28;1080;-58
2021/07/09 09:20:02;;;;;;;;;;;;;;;21.11;58.34;101935.63;5036689;28;851;-57
2021/07/09 09:22:27;;;;;;;;;;;;;;;21.08;58.68;101926.91;5036629;28;914;-57
2021/07/09 09:24:52;;;;;;;;;;;;;;;21.15;58.04;101928.03;5035993;28;1956;-58
2021/07/09 09:27:17;;;;;;;;;;;;;;;21.26;58.57;101929.81;5036398;28;1001;-57
2021/07/09 09:29:42;;;;;;;;;;;;;;;21.27;58.44;101928.81;5035210;28;1540;-57
2021/07/09 09:32:08;;;;;;;;;;;;;;;21.22;58.61;101931.09;5034873;28;839;-57
2021/07/09 09:34:33;;;;;;;;;;;;;;;21.25;57.75;101931.66;5036417;28;2108;-57
2021/07/09 09:36:59;;;;;;;;;;;;;;;21.34;58.05;101924.50;5036078;28;1184;-57
2021/07/09 09:39:24;;;;;;;;;;;;;;;21.42;58.36;101921.94;5036260;28;835;-58
2021/07/09 09:41:49;;;;;;;;;;;;;;;21.41;57.77;101925.66;5036223;28;1965;-59
2021/07/09 09:44:14;;;;;;;;;;;;;;;21.40;57.65;101915.81;5036070;28;1919;-58
2021/07/09 09:46:39;;;;;;;;;;;;;;;21.35;58.11;101926.22;5036084;28;848;-57
2021/07/09 09:49:05;;;;;;;;;;;;;;;21.38;58.02;101909.66;5036077;28;1510;-58
2021/07/09 09:51:30;;;;;;;;;;;;;;;21.40;57.71;101913.09;5035795;28;893;-58
2021/07/09 09:53:56;;;;;;;;;;;;;;;21.44;57.95;101909.09;5035638;28;839;-58
2021/07/09 09:56:21;;;;;;;;;;;;;;;21.46;57.69;101907.09;5036085;28;850;-59
2021/07/09 09:58:46;;;;;;;;;;;;;;;21.46;57.94;101904.41;5035294;28;1983;-58
2021/07/09 10:01:11;;;;;;;;;;;;;;;21.43;57.42;101913.69;5035544;28;1001;-58
2021/07/09 10:03:36;;;;;;;;;;;;;;;21.43;57.85;101907.41;5035928;28;941;-57
2021/07/09 10:06:01;;;;;;;;;;;;;;;21.44;56.92;101899.13;5035894;28;1955;-59
2021/07/09 10:08:26;;;;;;;;;;;;;;;21.41;56.75;101898.53;5035888;28;1619;-59
2021/07/09 10:10:51;;;;;;;;;;;;;;;21.41;56.83;101893.13;5035392;28;893;-58
2021/07/09 10:13:16;;;;;;;;;;;;;;;21.43;57.34;101888.41;5035260;28;1566;-58
2021/07/09 10:15:41;;;;;;;;;;;;;;;21.44;57.34;101892.84;5034774;28;1725;-57
2021/07/09 10:18:06;;;;;;;;;;;;;;;21.37;56.85;101892.53;5035654;28;1655;-58
2021/07/09 10:20:31;;;;;;;;;;;;;;;21.35;57.48;101890.97;5035367;28;1052;-58
2021/07/09 10:22:57;;;;;;;;;;;;;;;21.33;57.35;101896.53;5035776;28;1025;-58
2021/07/09 10:25:23;;;;;;;;;;;;;;;21.38;57.11;101898.81;5035020;28;1931;-58
2021/07/09 10:27:48;;;;;;;;;;;;;;;21.41;57.71;101893.13;5035339;28;1657;-58
2021/07/09 10:30:13;;;;;;;;;;;;;;;21.48;57.56;101894.25;5035092;28;1750;-58
2021/07/09 10:32:38;;;;;;;;;;;;;;;21.57;57.28;101892.53;5035264;28;1492;-58
2021/07/09 10:35:03;;;;;;;;;;;;;;;21.57;56.97;101882.53;5035173;28;1570;-58
2021/07/09 10:37:29;;;;;;;;;;;;;;;21.57;57.40;101887.09;5034414;28;1620;-57
2021/07/09 10:39:55;;;;;;;;;;;;;;;21.51;57.00;101893.09;5034529;28;1694;-57
2021/07/09 10:42:20;;;;;;;;;;;;;;;21.44;57.11;101890.13;5034232;28;1490;-57
2021/07/09 10:44:45;;;;;;;;;;;;;;;21.34;57.07;101891.97;5033558;28;1973;-58
2021/07/09 10:47:11;;;;;;;;;;;;;;;21.36;57.36;101884.53;5034996;28;1704;-58
2021/07/09 10:49:36;;;;;;;;;;;;;;;21.29;56.66;101878.88;5033948;28;1944;-57
2021/07/09 10:52:01;;;;;;;;;;;;;;;21.34;56.88;101881.13;5034478;28;1723;-58
2021/07/09 10:54:26;;;;;;;;;;;;;;;21.47;56.55;101881.69;5034696;28;1696;-58
2021/07/09 10:56:51;;;;;;;;;;;;;;;21.55;56.56;101875.53;5034454;28;1708;-58
2021/07/09 10:59:16;;;;;;;;;;;;;;;21.55;55.96;101880.94;5034186;28;1561;-57
2021/07/09 11:01:42;;;;;;;;;;;;;;;21.52;55.89;101879.38;5034241;28;1639;-57
2021/07/09 11:04:07;;;;;;;;;;;;;;;21.55;56.14;101873.69;5034510;28;1636;-57
2021/07/09 11:06:32;;;;;;;;;;;;;;;21.52;55.28;101879.38;5034946;28;2001;-58
2021/07/09 11:08:57;;;;;;;;;;;;;;;21.54;55.35;101882.81;5034468;28;1597;-58
2021/07/09 11:11:22;;;;;;;;;;;;;;;21.57;55.11;101874.38;5034432;28;1692;-58
2021/07/09 11:13:49;;;;;;;;;;;;;;;21.56;54.68;101877.25;5034284;28;1618;-57
2021/07/09 11:16:14;;;;;;;;;;;;;;;21.58;54.66;101872.53;5034788;28;1478;-58
2021/07/09 11:18:39;;;;;;;;;;;;;;;21.64;54.89;101867.38;5034979;28;1551;-57
2021/07/09 11:21:04;;;;;;;;;;;;;;;21.66;55.52;101876.25;5034516;28;1905;-57
2021/07/09 11:23:29;;;;;;;;;;;;;;;21.66;55.10;101869.97;5034714;28;811;-57
2021/07/09 11:25:54;;;;;;;;;;;;;;;21.66;55.47;101873.53;5034541;28;1898;-58
2021/07/09 11:28:19;;;;;;;;;;;;;;;21.69;55.83;101881.34;5034707;28;889;-58
2021/07/09 11:30:44;;;;;;;;;;;;;;;21.71;55.42;101873.91;5034994;28;1041;-58
2021/07/09 11:33:09;;;;;;;;;;;;;;;21.66;55.07;101862.69;5034827;28;1049;-58
2021/07/09 11:35:35;;;;;;;;;;;;;;;21.67;56.04;101872.53;5034572;28;1728;-58
2021/07/09 11:38:00;;;;;;;;;;;;;;;21.65;55.12;101865.53;5034579;28;2094;-56
2021/07/09 11:40:25;;;;;;;;;;;;;;;21.63;54.56;101865.69;5034720;28;942;-55
2021/07/09 11:42:50;;;;;;;;;;;;;;;21.63;55.14;101871.09;5033701;28;1065;-57
2021/07/09 11:45:15;;;;;;;;;;;;;;;21.58;55.05;101867.97;5034419;28;1918;-58
2021/07/09 11:47:40;;;;;;;;;;;;;;;21.52;54.29;101859.53;5034467;28;874;-57
2021/07/09 11:50:05;;;;;;;;;;;;;;;21.48;54.10;101862.56;5034541;28;870;-58
2021/07/09 11:52:31;;;;;;;;;;;;;;;21.49;54.62;101858.00;5034333;28;1933;-57
2021/07/09 11:54:56;;;;;;;;;;;;;;;21.54;54.46;101861.13;5035246;28;1926;-58
2021/07/09 11:57:21;;;;;;;;;;;;;;;21.55;53.95;101870.97;5037805;28;1001;-57
2021/07/09 11:59:46;;;;;;;;;;;;;;;21.56;53.99;101867.25;5038179;28;965;-58
2021/07/09 12:02:11;;;;;;;;;;;;;;;21.59;53.93;101874.25;5038263;28;1001;-57
2021/07/09 12:04:36;;;;;;;;;;;;;;;21.60;53.66;101868.69;5037696;28;1910;-58
2021/07/09 12:07:01;;;;;;;;;;;;;;;21.67;53.81;101872.53;5037816;28;803;-58
2021/07/09 12:09:26;;;;;;;;;;;;;;;21.70;53.65;101874.06;5037691;28;1874;-58
2021/07/09 12:11:51;;;;;;;;;;;;;;;21.64;53.62;101874.66;5038016;28;1945;-57
2021/07/09 12:14:17;;;;;;;;;;;;;;;21.63;54.22;101871.09;5037470;28;953;-58
2021/07/09 12:16:42;;;;;;;;;;;;;;;21.69;54.37;101872.34;5038472;28;850;-58
2021/07/09 12:19:07;;;;;;;;;;;;;;;21.76;54.19;101866.19;5037631;28;868;-58
2021/07/09 12:21:32;;;;;;;;;;;;;;;21.77;54.57;101872.47;5037884;28;1792;-58
2021/07/09 12:23:57;;;;;;;;;;;;;;;21.85;54.09;101871.75;5037602;28;846;-58
2021/07/09 12:26:23;;;;;;;;;;;;;;;21.84;54.36;101873.63;5037647;28;2091;-58
2021/07/09 12:28:48;;;;;;;;;;;;;;;21.82;54.24;101868.34;5037737;28;974;-58
2021/07/09 12:31:13;;;;;;;;;;;;;;;21.80;54.00;101870.34;5037461;28;1646;-58
2021/07/09 12:33:40;;;;;;;;;;;;;;;21.80;54.17;101866.78;5037492;28;827;-57
2021/07/09 12:36:05;;;;;;;;;;;;;;;21.81;54.53;101869.34;5037182;28;923;-58
2021/07/09 12:38:30;;;;;;;;;;;;;;;21.78;54.37;101875.06;5037434;28;929;-58